createdAt,value
2022-11-05T00:02:04.742Z,3.38
2022-11-05T00:04:54.265Z,4.85
2022-11-05T00:07:52.137Z,4.25
2022-11-05T00:10:26.117Z,4.10
2022-11-05T00:16:25.599Z,3.72
2022-11-05T00:19:11.398Z,5.30
2022-11-05T00:21:58.632Z,3.65
2022-11-05T00:24:48.279Z,2.97
2022-11-05T00:27:16.345Z,2.33
2022-11-05T00:33:14.747Z,2.80
2022-11-05T00:35:43.398Z,3.45
2022-11-05T00:38:11.638Z,3.15
2022-11-05T00:40:47.458Z,5.00
2022-11-05T00:43:37.344Z,3.28
2022-11-05T00:46:09.698Z,3.75
2022-11-05T00:49:20.782Z,5.53
2022-11-05T00:51:48.823Z,7.97
2022-11-05T00:54:57.932Z,3.80
2022-11-05T00:57:28.974Z,5.10
2022-11-05T00:59:58.981Z,6.53
2022-11-05T01:02:29.484Z,4.68
2022-11-05T01:04:59.240Z,4.23
2022-11-05T01:11:03.967Z,7.20
2022-11-05T01:16:13.261Z,5.07
2022-11-05T01:18:41.510Z,4.43
2022-11-05T01:21:17.014Z,4.25
2022-11-05T01:23:55.046Z,6.68
2022-11-05T01:26:28.172Z,3.90
2022-11-05T01:28:59.338Z,4.35
2022-11-05T01:31:27.403Z,6.65
2022-11-05T01:33:57.242Z,9.55
2022-11-05T01:36:39.219Z,5.68
2022-11-05T01:39:08.227Z,3.83
2022-11-05T01:41:42.621Z,4.97
2022-11-05T01:44:34.464Z,5.03
2022-11-05T01:47:08.809Z,4.97
2022-11-05T01:49:36.775Z,8.10
2022-11-05T01:52:08.853Z,5.13
2022-11-05T01:54:39.979Z,5.95
2022-11-05T01:57:09.824Z,4.35
2022-11-05T01:59:59.329Z,4.95
2022-11-05T02:02:27.301Z,5.35
2022-11-05T02:04:59.243Z,10.18
2022-11-05T02:07:34.979Z,6.75
2022-11-05T02:10:07.245Z,7.30
2022-11-05T02:12:35.697Z,9.13
2022-11-05T02:15:03.833Z,6.50
2022-11-05T02:17:56.617Z,5.38
2022-11-05T02:20:31.025Z,7.32
2022-11-05T02:23:03.231Z,9.00
2022-11-05T02:25:46.640Z,9.85
2022-11-05T02:28:26.037Z,10.80
2022-11-05T02:30:54.035Z,6.90
2022-11-05T02:33:39.309Z,7.22
2022-11-05T02:36:29.971Z,6.20
2022-11-05T02:39:22.957Z,9.15
2022-11-05T02:42:06.810Z,4.82
2022-11-05T02:44:57.780Z,16.77
2022-11-05T02:47:52.619Z,6.07
2022-11-05T02:50:45.587Z,4.95
2022-11-05T02:53:17.418Z,4.72
2022-11-05T02:56:06.186Z,14.27
2022-11-05T02:58:37.355Z,4.03
2022-11-05T03:01:14.374Z,6.25
2022-11-05T03:03:49.756Z,5.72
2022-11-05T03:06:36.555Z,4.65
2022-11-05T03:09:23.300Z,4.35
2022-11-05T03:12:10.863Z,5.13
2022-11-05T03:14:46.131Z,3.50
2022-11-05T03:17:36.240Z,6.63
2022-11-05T03:20:25.130Z,5.57
2022-11-05T03:23:16.965Z,6.57
2022-11-05T03:26:09.024Z,4.20
2022-11-05T03:28:40.027Z,3.60
2022-11-05T03:31:20.679Z,8.20
2022-11-05T03:33:56.423Z,3.20
2022-11-05T03:36:58.365Z,4.47
2022-11-05T03:39:40.149Z,5.15
2022-11-05T03:42:18.804Z,3.53
2022-11-05T03:44:49.425Z,4.15
2022-11-05T03:47:20.065Z,7.78
2022-11-05T03:50:06.325Z,5.80
2022-11-05T03:52:53.580Z,5.60
2022-11-05T03:55:26.018Z,4.38
2022-11-05T03:57:56.083Z,3.63
2022-11-05T04:00:29.603Z,4.07
2022-11-05T04:02:57.578Z,3.03
2022-11-05T04:05:27.665Z,2.90
2022-11-05T04:08:17.166Z,5.57
2022-11-05T04:11:14.926Z,3.72
2022-11-05T04:13:48.930Z,3.80
2022-11-05T04:16:35.185Z,6.93
2022-11-05T04:19:03.324Z,3.58
2022-11-05T04:21:50.609Z,7.43
2022-11-05T04:24:26.079Z,5.65
2022-11-05T04:26:57.346Z,5.97
2022-11-05T04:29:46.971Z,5.60
2022-11-05T04:32:28.365Z,6.25
2022-11-05T04:35:33.340Z,5.78
2022-11-05T04:38:16.573Z,4.88
2022-11-05T04:40:46.053Z,4.28
2022-11-05T04:43:21.998Z,5.68
2022-11-05T04:45:57.898Z,5.70
2022-11-05T04:48:27.097Z,5.78
2022-11-05T04:50:55.031Z,6.38
2022-11-05T04:53:27.003Z,7.05
2022-11-05T04:55:56.394Z,8.55
2022-11-05T04:58:41.413Z,5.82
2022-11-05T05:01:21.444Z,7.75
2022-11-05T05:03:50.422Z,5.82
2022-11-05T05:06:22.726Z,6.85
2022-11-05T05:08:56.689Z,7.65
2022-11-05T05:11:24.820Z,5.32
2022-11-05T05:13:52.746Z,6.25
2022-11-05T05:16:28.441Z,6.28
2022-11-05T05:18:57.153Z,4.55
2022-11-05T05:21:43.156Z,7.53
2022-11-05T05:24:18.627Z,7.13
2022-11-05T05:26:49.917Z,5.82
2022-11-05T05:29:18.434Z,5.97
2022-11-05T05:31:48.325Z,7.97
2022-11-05T05:34:17.439Z,5.78
2022-11-05T05:36:46.923Z,6.53
2022-11-05T05:39:22.707Z,7.18
2022-11-05T05:46:04.076Z,5.82
2022-11-05T05:48:43.680Z,6.35
2022-11-05T05:51:14.802Z,5.78
2022-11-05T05:53:47.900Z,6.22
2022-11-05T06:02:33.381Z,7.35
2022-11-05T06:05:42.073Z,5.93
2022-11-05T06:08:41.740Z,7.13
2022-11-05T06:11:39.571Z,7.30
2022-11-05T06:15:02.099Z,5.45
2022-11-05T06:18:26.503Z,6.10
2022-11-05T06:20:59.969Z,6.80
2022-11-05T06:36:18.720Z,6.18
2022-11-05T06:38:55.421Z,5.88
2022-11-05T06:41:38.017Z,6.32
2022-11-05T06:47:00.335Z,8.63
2022-11-05T06:49:29.685Z,7.18
2022-11-05T07:16:09.707Z,7.43
2022-11-05T07:19:08.282Z,9.10
2022-11-05T07:21:37.064Z,6.60
2022-11-05T07:24:11.852Z,8.13
2022-11-05T07:39:39.456Z,6.70
2022-11-05T08:35:33.096Z,5.03
2022-11-05T08:41:11.763Z,5.90
2022-11-05T08:53:23.760Z,6.75
2022-11-05T08:56:24.877Z,5.85
2022-11-05T09:02:43.702Z,7.07
2022-11-05T09:35:06.865Z,8.18
2022-11-05T09:40:43.683Z,9.65
2022-11-05T09:43:33.215Z,10.75
2022-11-05T10:01:49.867Z,9.40
2022-11-05T11:09:48.710Z,15.95
2022-11-05T11:12:29.709Z,15.38
2022-11-05T20:04:36.021Z,14.90
2022-11-05T20:24:04.774Z,14.25
2022-11-05T20:26:41.878Z,18.17
2022-11-05T20:29:12.404Z,16.92
2022-11-05T20:31:55.528Z,10.23
2022-11-05T20:37:38.056Z,11.73
2022-11-05T20:40:13.627Z,9.93
2022-11-05T20:42:42.598Z,10.23
2022-11-05T20:45:18.840Z,12.05
2022-11-05T20:47:48.241Z,12.20
2022-11-05T20:50:29.907Z,12.27
2022-11-05T20:53:12.054Z,9.75
2022-11-05T20:56:07.795Z,12.05
2022-11-05T20:59:03.818Z,9.93
2022-11-05T21:05:12.313Z,9.80
2022-11-05T21:08:05.254Z,11.40
2022-11-05T21:10:37.532Z,9.05
2022-11-05T21:13:07.274Z,10.02
2022-11-05T21:38:11.672Z,8.23
2022-11-05T22:20:00.491Z,16.30
2022-11-05T22:26:09.376Z,13.35
2022-11-05T22:29:00.349Z,12.38
2022-11-05T22:47:24.350Z,12.45
2022-11-05T23:02:41.797Z,12.57
2022-11-05T23:05:24.060Z,12.85
